Time;durP1;ratioP1;P1;durP2;ratioP2;P2;SDS_P1;SDS_P2;PMS_P1;PMS_P2;Temp;Humidity;BMP_temperature;BMP_pressure;BME280_temperature;BME280_humidity;BME280_pressure;Samples;Min_cycle;Max_cycle;Signal;HPM_P1;HPM_P2
2023/05/09 00:01:11;;;;;;;37.03;27.05;;;;;;;14.67;100.00;101602.47;4926192;28;20075;-73
2023/05/09 00:03:37;;;;;;;35.17;26.52;;;;;;;14.66;100.00;101600.75;4892731;29;20041;-73
2023/05/09 00:06:03;;;;;;;32.05;24.40;;;;;;;14.67;100.00;101597.13;4899345;28;20385;-74
2023/05/09 00:08:28;;;;;;;35.78;26.05;;;;;;;14.66;100.00;101592.72;4924813;28;20119;-74
2023/05/09 00:10:54;;;;;;;32.25;24.85;;;;;;;14.65;100.00;101591.00;4905385;28;20550;-72
2023/05/09 00:13:19;;;;;;;32.83;25.98;;;;;;;14.68;100.00;101580.13;4916735;28;20237;-73
2023/05/09 00:15:45;;;;;;;32.75;25.20;;;;;;;14.63;100.00;101579.50;4888499;29;20869;-74
2023/05/09 00:18:13;;;;;;;32.03;25.00;;;;;;;14.55;100.00;101577.25;4908342;28;20068;-73
2023/05/09 00:20:39;;;;;;;32.13;24.73;;;;;;;14.54;100.00;101575.50;4887818;28;20108;-74
2023/05/09 00:23:06;;;;;;;30.85;24.23;;;;;;;14.53;100.00;101575.59;4984166;28;20024;-74
2023/05/09 00:25:31;;;;;;;32.08;24.58;;;;;;;14.50;100.00;101571.28;4902088;29;20504;-74
2023/05/09 00:27:57;;;;;;;32.75;25.23;;;;;;;14.48;100.00;101567.81;4900844;28;20074;-75
2023/05/09 00:30:22;;;;;;;29.98;23.80;;;;;;;14.44;100.00;101560.88;4914037;28;20559;-73
2023/05/09 00:32:48;;;;;;;30.85;23.38;;;;;;;14.45;100.00;101562.59;4905414;28;20084;-74
2023/05/09 00:35:13;;;;;;;32.47;23.58;;;;;;;14.43;100.00;101560.03;4941952;28;20028;-75
2023/05/09 00:37:38;;;;;;;30.35;24.40;;;;;;;14.39;100.00;101555.78;4915849;28;20380;-73
2023/05/09 00:40:06;;;;;;;31.15;24.80;;;;;;;14.38;100.00;101551.38;4901851;28;20060;-73
2023/05/09 00:42:31;;;;;;;29.80;24.67;;;;;;;14.37;100.00;101552.31;4972444;28;20195;-74
2023/05/09 00:44:57;;;;;;;30.60;24.13;;;;;;;14.34;100.00;101546.28;4905983;28;20136;-74
2023/05/09 00:47:23;;;;;;;29.13;23.35;;;;;;;14.31;100.00;101547.31;4906654;29;20468;-74
2023/05/09 00:49:48;;;;;;;31.23;23.20;;;;;;;14.32;100.00;101549.03;4894093;28;20408;-73
2023/05/09 00:52:14;;;;;;;30.83;23.38;;;;;;;14.34;100.00;101548.97;4902779;28;20036;-73
2023/05/09 00:54:39;;;;;;;28.55;23.17;;;;;;;14.32;100.00;101546.34;4901917;28;20501;-72
2023/05/09 00:57:05;;;;;;;31.20;24.25;;;;;;;14.33;100.00;101542.72;4891526;29;20036;-74
2023/05/09 00:59:30;;;;;;;31.13;25.10;;;;;;;14.31;100.00;101544.63;4914595;28;20028;-74
2023/05/09 01:01:56;;;;;;;29.90;24.77;;;;;;;14.30;100.00;101534.88;4902252;29;20681;-73
2023/05/09 01:04:21;;;;;;;31.52;24.55;;;;;;;14.30;100.00;101534.03;4996192;28;20037;-74
2023/05/09 01:07:09;;;;;;;29.92;22.52;;;;;;;14.29;100.00;101526.91;4921387;28;20040;-73
2023/05/09 01:09:48;;;;;;;30.13;23.25;;;;;;;14.28;100.00;101520.69;4886339;28;20113;-73
2023/05/09 01:12:32;;;;;;;29.67;23.15;;;;;;;14.26;100.00;101514.56;4982161;28;20047;-73
2023/05/09 01:15:20;;;;;;;29.23;24.10;;;;;;;14.22;100.00;101509.47;4899759;28;20103;-74
2023/05/09 01:17:56;;;;;;;29.23;23.67;;;;;;;14.17;100.00;101501.69;4943034;28;20029;-75
2023/05/09 01:20:32;;;;;;;29.00;23.00;;;;;;;14.14;100.00;101501.88;4898453;28;20032;-76
2023/05/09 01:23:22;;;;;;;32.20;23.92;;;;;;;14.14;100.00;101499.19;4924601;28;20024;-76
2023/05/09 01:25:50;;;;;;;32.15;24.85;;;;;;;14.09;100.00;101501.25;4896625;29;20086;-76
2023/05/09 01:28:34;;;;;;;29.92;23.85;;;;;;;14.07;100.00;101495.13;4899908;29;20032;-73
2023/05/09 01:31:00;;;;;;;29.45;23.67;;;;;;;14.07;100.00;101479.06;4984807;28;20036;-75
2023/05/09 01:33:28;;;;;;;31.40;24.98;;;;;;;14.01;100.00;101479.41;4939055;28;20311;-76
2023/05/09 01:36:00;;;;;;;29.83;23.90;;;;;;;13.97;100.00;101480.53;4887143;28;20025;-73
2023/05/09 01:38:29;;;;;;;30.95;24.25;;;;;;;13.97;100.00;101485.88;4907238;28;20104;-73
2023/05/09 01:40:58;;;;;;;31.45;24.00;;;;;;;14.00;100.00;101486.53;4905275;28;20039;-74
2023/05/09 01:43:26;;;;;;;28.50;24.08;;;;;;;13.95;100.00;101478.78;4898865;28;20055;-73
2023/05/09 01:45:52;;;;;;;28.70;24.92;;;;;;;13.95;100.00;101470.75;4894350;29;20517;-73
2023/05/09 01:48:19;;;;;;;36.42;26.83;;;;;;;13.93;100.00;101482.50;4985323;28;20032;-73
2023/05/09 01:50:47;;;;;;;32.17;25.65;;;;;;;13.97;100.00;101469.81;4912425;28;20091;-74
2023/05/09 01:53:16;;;;;;;30.63;25.52;;;;;;;13.94;100.00;101469.03;4915456;29;20028;-72
2023/05/09 01:55:42;;;;;;;30.48;25.20;;;;;;;13.94;100.00;101470.84;4918066;28;20052;-76
2023/05/09 01:58:09;;;;;;;31.00;25.58;;;;;;;13.94;100.00;101473.50;4898457;28;20041;-74
2023/05/09 02:00:35;;;;;;;29.00;24.67;;;;;;;13.94;100.00;101478.88;4903840;28;20043;-74
2023/05/09 02:03:03;;;;;;;31.92;24.95;;;;;;;13.92;100.00;101473.63;4915077;28;20033;-76
2023/05/09 02:05:30;;;;;;;30.48;24.80;;;;;;;13.90;100.00;101470.13;4923720;28;20028;-76
2023/05/09 02:07:57;;;;;;;32.25;24.80;;;;;;;13.93;100.00;101466.44;4955039;28;20050;-74
2023/05/09 02:10:24;;;;;;;31.70;25.40;;;;;;;13.88;100.00;101455.13;4927895;28;20095;-74
2023/05/09 02:12:50;;;;;;;33.30;26.02;;;;;;;13.89;100.00;101459.53;4934993;28;20029;-75
2023/05/09 02:15:16;;;;;;;32.08;25.67;;;;;;;13.82;100.00;101445.59;4905500;28;20121;-73
2023/05/09 02:17:41;;;;;;;31.73;25.95;;;;;;;13.85;100.00;101453.47;4969121;28;20037;-73
2023/05/09 02:20:08;;;;;;;34.05;26.27;;;;;;;13.83;100.00;101452.69;4930808;28;20543;-74
2023/05/09 02:22:35;;;;;;;30.55;24.65;;;;;;;13.78;100.00;101449.41;4984961;28;20295;-74
2023/05/09 02:25:03;;;;;;;30.73;24.08;;;;;;;13.80;100.00;101455.56;4921055;28;20036;-73
2023/05/09 02:27:31;;;;;;;31.58;24.92;;;;;;;13.76;100.00;101456.66;4928386;28;20028;-74
2023/05/09 02:30:01;;;;;;;29.25;23.90;;;;;;;13.75;100.00;101457.59;4916487;28;20086;-73
2023/05/09 02:32:30;;;;;;;32.38;25.85;;;;;;;13.70;100.00;101449.81;4911209;28;20036;-75
2023/05/09 02:34:57;;;;;;;29.90;23.67;;;;;;;13.70;100.00;101455.16;4903896;28;20032;-73
2023/05/09 02:37:24;;;;;;;27.75;24.08;;;;;;;13.67;100.00;101454.50;4949207;28;20032;-74
2023/05/09 02:39:50;;;;;;;29.77;23.67;;;;;;;13.64;100.00;101457.31;4958124;28;20028;-74
2023/05/09 02:42:20;;;;;;;29.13;24.17;;;;;;;13.55;100.00;101452.47;4952758;28;20034;-75
2023/05/09 02:44:45;;;;;;;34.13;25.80;;;;;;;13.53;100.00;101452.53;4903413;28;20119;-74
2023/05/09 02:47:10;;;;;;;31.10;25.58;;;;;;;13.55;100.00;101452.47;4907416;28;20600;-74
2023/05/09 02:49:36;;;;;;;30.92;24.95;;;;;;;13.52;100.00;101447.28;4904965;28;20048;-74
2023/05/09 02:52:01;;;;;;;33.13;25.60;;;;;;;13.50;100.00;101444.66;4897569;28;20028;-73
2023/05/09 02:54:27;;;;;;;27.80;22.85;;;;;;;13.43;100.00;101441.47;4986107;28;20027;-74
2023/05/09 02:56:52;;;;;;;30.02;23.73;;;;;;;13.42;100.00;101439.75;4895849;28;20040;-74
2023/05/09 02:59:21;;;;;;;30.67;23.90;;;;;;;13.38;100.00;101430.16;4895753;29;20167;-72
2023/05/09 03:01:46;;;;;;;29.55;23.40;;;;;;;13.38;100.00;101421.28;4902537;28;20060;-72
2023/05/09 03:04:12;;;;;;;29.13;23.85;;;;;;;13.33;100.00;101426.84;4901886;28;20488;-74
2023/05/09 03:06:37;;;;;;;30.40;23.77;;;;;;;13.30;100.00;101423.50;4905092;28;20024;-76
2023/05/09 03:09:03;;;;;;;32.05;24.17;;;;;;;13.29;100.00;101414.59;4955573;28;20236;-75
2023/05/09 03:11:29;;;;;;;28.00;22.55;;;;;;;13.28;100.00;101415.53;4911382;28;20035;-74
2023/05/09 03:13:55;;;;;;;30.33;22.98;;;;;;;13.28;100.00;101420.88;4918054;28;20860;-73
2023/05/09 03:16:20;;;;;;;28.70;21.73;;;;;;;13.32;100.00;101414.44;4904171;28;20033;-74
2023/05/09 03:18:45;;;;;;;26.48;22.00;;;;;;;13.30;100.00;101407.47;4978134;28;20049;-75
2023/05/09 03:21:11;;;;;;;26.10;21.13;;;;;;;13.29;100.00;101403.03;4929530;28;20037;-75
2023/05/09 03:23:37;;;;;;;27.55;21.70;;;;;;;13.29;100.00;101403.91;4924684;28;20122;-73
2023/05/09 03:26:02;;;;;;;26.23;20.85;;;;;;;13.29;100.00;101409.25;4899009;28;20042;-73
2023/05/09 03:28:28;;;;;;;24.65;20.73;;;;;;;13.33;100.00;101404.59;4905488;28;20051;-73
2023/05/09 03:30:53;;;;;;;25.52;20.52;;;;;;;13.32;100.00;101397.53;4897453;28;20116;-74
2023/05/09 03:33:19;;;;;;;24.73;20.02;;;;;;;13.31;100.00;101402.03;4962431;28;20043;-73
2023/05/09 03:35:45;;;;;;;26.27;20.73;;;;;;;13.29;100.00;101401.22;4895531;28;20035;-73
2023/05/09 03:38:10;;;;;;;25.85;20.13;;;;;;;13.29;100.00;101403.03;4900694;28;20543;-75
2023/05/09 03:40:36;;;;;;;24.52;20.00;;;;;;;13.29;100.00;101403.03;4892316;28;20144;-75
2023/05/09 03:43:01;;;;;;;26.35;20.52;;;;;;;13.28;100.00;101391.47;4942365;28;20421;-74
2023/05/09 03:45:27;;;;;;;24.80;20.60;;;;;;;13.25;100.00;101391.66;4887726;29;20032;-74
2023/05/09 03:47:52;;;;;;;26.40;21.20;;;;;;;13.25;100.00;101386.31;4947256;28;20178;-74
2023/05/09 03:50:18;;;;;;;24.40;20.23;;;;;;;13.20;100.00;101386.50;4910741;28;20473;-73
2023/05/09 03:52:44;;;;;;;25.30;20.08;;;;;;;13.20;100.00;101391.00;4890873;29;20036;-74
2023/05/09 03:55:09;;;;;;;23.35;20.60;;;;;;;13.20;100.00;101385.66;4897343;29;20039;-74
2023/05/09 03:57:35;;;;;;;26.58;21.05;;;;;;;13.18;100.00;101390.22;4893122;28;20059;-73
2023/05/09 04:00:01;;;;;;;25.35;20.98;;;;;;;13.13;100.00;101389.63;4898393;28;20062;-74
2023/05/09 04:02:27;;;;;;;24.20;20.27;;;;;;;13.13;100.00;101394.97;4912153;28;20529;-74
2023/05/09 04:04:52;;;;;;;24.05;20.30;;;;;;;13.05;100.00;101383.81;4981389;28;20043;-74
2023/05/09 04:07:19;;;;;;;25.25;20.45;;;;;;;13.06;100.00;101385.53;4909608;28;20097;-74
2023/05/09 04:09:45;;;;;;;24.38;19.90;;;;;;;13.04;100.00;101379.38;4905662;29;20031;-73
2023/05/09 04:12:10;;;;;;;26.80;20.85;;;;;;;13.07;100.00;101376.56;4898086;28;20351;-74
2023/05/09 04:14:36;;;;;;;23.80;20.38;;;;;;;13.04;100.00;101366.03;4896381;28;20086;-74
2023/05/09 04:17:02;;;;;;;26.98;21.20;;;;;;;12.98;100.00;101359.19;4998554;28;20060;-74
2023/05/09 04:19:27;;;;;;;25.63;21.85;;;;;;;13.03;100.00;101357.16;4917090;28;20068;-74
2023/05/09 04:21:52;;;;;;;25.70;21.27;;;;;;;13.00;100.00;101353.75;4896434;29;20385;-74
2023/05/09 04:24:19;;;;;;;23.70;21.13;;;;;;;12.97;100.00;101346.78;4934150;28;20075;-73
2023/05/09 04:26:45;;;;;;;24.85;20.98;;;;;;;13.03;100.00;101353.63;4984029;28;20498;-74
2023/05/09 04:29:10;;;;;;;27.42;22.58;;;;;;;13.03;100.00;101349.13;4907034;28;20036;-75
2023/05/09 04:31:35;;;;;;;26.05;21.85;;;;;;;13.06;100.00;101354.31;4892283;29;20036;-74
2023/05/09 04:34:01;;;;;;;24.05;21.27;;;;;;;13.12;100.00;101353.97;4976092;28;20040;-75
2023/05/09 04:36:30;;;;;;;27.33;22.23;;;;;;;13.17;100.00;101354.63;4896489;28;20032;-76
2023/05/09 04:38:56;;;;;;;24.90;21.45;;;;;;;13.23;100.00;101355.25;4888888;28;20033;-76
2023/05/09 04:41:21;;;;;;;23.70;20.73;;;;;;;13.25;100.00;101354.25;4902113;28;20036;-74
2023/05/09 04:43:47;;;;;;;26.92;21.52;;;;;;;13.33;100.00;101345.78;4896966;28;20036;-72
2023/05/09 04:46:12;;;;;;;25.63;21.00;;;;;;;13.37;100.00;101337.50;4899363;28;20093;-77
2023/05/09 04:48:37;;;;;;;23.77;20.45;;;;;;;13.36;100.00;101325.09;4900010;28;20032;-74
2023/05/09 04:51:03;;;;;;;23.65;21.08;;;;;;;13.44;100.00;101333.56;4895733;28;20563;-73
2023/05/09 04:53:28;;;;;;;23.38;20.63;;;;;;;13.48;100.00;101331.59;4894826;29;20438;-73
2023/05/09 04:55:54;;;;;;;24.45;20.35;;;;;;;13.53;100.00;101328.66;4923848;28;21372;-73
2023/05/09 04:58:20;;;;;;;25.80;20.90;;;;;;;13.54;100.00;101325.03;4926223;28;20269;-73
2023/05/09 05:00:45;;;;;;;23.10;20.77;;;;;;;13.67;100.00;101328.78;4903898;28;20798;-74
2023/05/09 05:03:11;;;;;;;24.08;20.73;;;;;;;13.76;100.00;101322.91;4955552;28;20023;-72
2023/05/09 05:05:36;;;;;;;24.25;20.38;;;;;;;13.84;100.00;101327.81;4894676;28;20198;-74
2023/05/09 05:08:02;;;;;;;22.92;20.42;;;;;;;13.84;100.00;101312.63;4905080;28;20118;-74
2023/05/09 05:10:29;;;;;;;23.95;21.25;;;;;;;13.81;100.00;101315.47;4922527;28;20039;-75
2023/05/09 05:12:54;;;;;;;24.13;21.15;;;;;;;13.90;100.00;101311.41;4892047;28;20025;-73
2023/05/09 05:15:20;;;;;;;24.25;21.23;;;;;;;13.87;100.00;101299.03;4897030;29;20035;-74
2023/05/09 05:17:45;;;;;;;22.00;19.58;;;;;;;13.90;100.00;101293.53;4997427;28;20021;-75
2023/05/09 05:20:10;;;;;;;23.95;20.10;;;;;;;13.94;100.00;101291.53;4901123;28;20531;-73
2023/05/09 05:22:36;;;;;;;23.35;19.67;;;;;;;13.93;100.00;101288.00;4904835;28;20033;-73
2023/05/09 05:25:03;;;;;;;23.08;20.05;;;;;;;14.02;100.00;101299.13;4925826;28;20021;-72
2023/05/09 05:27:28;;;;;;;23.23;19.88;;;;;;;14.04;100.00;101287.34;4902590;28;20058;-73
2023/05/09 05:29:54;;;;;;;21.52;19.17;;;;;;;14.09;100.00;101292.47;4969580;28;20040;-73
2023/05/09 05:32:22;;;;;;;22.65;20.20;;;;;;;14.11;100.00;101290.56;4897042;29;20094;-74
2023/05/09 05:34:48;;;;;;;21.13;18.92;;;;;;;14.13;100.00;101283.31;4896188;28;20030;-75
2023/05/09 05:37:13;;;;;;;22.02;19.65;;;;;;;14.17;100.00;101279.47;4921129;28;20032;-74
2023/05/09 05:39:38;;;;;;;22.15;19.48;;;;;;;14.26;100.00;101280.78;4920317;28;20036;-73
2023/05/09 05:42:04;;;;;;;20.40;18.33;;;;;;;14.40;100.00;101273.63;4981196;28;20021;-74
2023/05/09 05:44:29;;;;;;;21.50;19.38;;;;;;;14.56;100.00;101272.75;4891890;28;20442;-74
2023/05/09 05:46:54;;;;;;;21.75;19.08;;;;;;;14.69;100.00;101271.91;4921266;28;20149;-73
2023/05/09 05:49:20;;;;;;;21.50;19.02;;;;;;;14.75;100.00;101270.66;4908173;28;20039;-73
2023/05/09 05:51:45;;;;;;;20.17;18.05;;;;;;;14.82;100.00;101268.47;4907698;28;20040;-73
2023/05/09 05:54:11;;;;;;;20.60;18.48;;;;;;;14.91;100.00;101257.16;4909616;28;20504;-75
2023/05/09 05:56:36;;;;;;;19.63;17.52;;;;;;;15.02;100.00;101264.56;4894645;29;20119;-73
2023/05/09 05:59:01;;;;;;;22.40;18.92;;;;;;;15.09;100.00;101253.34;4903561;28;20036;-74
2023/05/09 06:01:27;;;;;;;20.08;17.80;;;;;;;15.23;100.00;101257.81;4936349;28;20046;-73
2023/05/09 06:03:54;;;;;;;20.98;17.70;;;;;;;15.34;100.00;101252.66;4933947;28;20035;-74
2023/05/09 06:06:23;;;;;;;19.92;17.92;;;;;;;15.47;100.00;101257.19;4899272;28;20282;-72
2023/05/09 06:08:49;;;;;;;19.45;17.35;;;;;;;15.66;100.00;101255.06;4922964;28;20500;-74
2023/05/09 06:11:18;;;;;;;18.40;16.50;;;;;;;15.76;100.00;101248.16;4928836;28;20044;-74
2023/05/09 06:13:44;;;;;;;20.33;18.20;;;;;;;15.90;100.00;101244.53;4956772;28;20037;-75
2023/05/09 06:16:09;;;;;;;21.92;17.90;;;;;;;15.97;100.00;101234.25;4918085;28;20028;-74
2023/05/09 06:18:36;;;;;;;19.30;16.95;;;;;;;16.07;99.68;101235.34;4932240;28;20489;-73
2023/05/09 06:21:02;;;;;;;18.65;16.85;;;;;;;16.15;99.40;101231.19;4920763;28;20036;-72
2023/05/09 06:23:28;;;;;;;18.55;16.48;;;;;;;16.27;99.09;101231.31;4936821;28;20047;-72
2023/05/09 06:25:53;;;;;;;18.02;16.10;;;;;;;16.35;98.62;101227.13;4999482;28;20036;-72
2023/05/09 06:28:19;;;;;;;18.73;16.35;;;;;;;16.38;97.32;101231.41;4915852;28;20060;-72
2023/05/09 06:30:44;;;;;;;17.27;15.18;;;;;;;16.42;97.72;101236.47;4910083;28;20529;-73
2023/05/09 06:33:10;;;;;;;17.58;15.73;;;;;;;16.39;97.91;101227.78;4912298;28;20499;-73
2023/05/09 06:35:35;;;;;;;17.23;15.40;;;;;;;16.28;96.75;101219.59;4919536;28;21849;-75
2023/05/09 06:38:00;;;;;;;18.15;16.08;;;;;;;16.15;97.70;101222.28;4976487;28;20036;-73
2023/05/09 06:40:26;;;;;;;16.30;14.73;;;;;;;16.19;97.68;101219.28;4918905;28;20475;-73
2023/05/09 06:42:51;;;;;;;17.75;15.00;;;;;;;16.13;96.51;101210.75;4940142;28;20040;-72
2023/05/09 06:45:17;;;;;;;15.75;14.20;;;;;;;16.08;97.42;101218.28;4920576;28;20035;-73
2023/05/09 06:47:42;;;;;;;16.05;14.38;;;;;;;16.08;97.88;101211.06;4906746;28;20028;-72
2023/05/09 06:50:07;;;;;;;16.95;15.10;;;;;;;16.11;98.20;101210.03;4962254;28;20063;-72
2023/05/09 06:52:33;;;;;;;15.75;14.05;;;;;;;16.19;97.12;101213.03;4904929;28;20062;-72
2023/05/09 06:54:58;;;;;;;16.15;14.40;;;;;;;16.25;97.10;101206.38;4902942;28;20032;-73
2023/05/09 06:57:24;;;;;;;15.05;13.55;;;;;;;16.29;96.91;101202.50;4963408;28;20034;-74
2023/05/09 06:59:50;;;;;;;14.65;13.18;;;;;;;16.32;96.34;101196.94;4915362;28;20035;-74
2023/05/09 07:02:15;;;;;;;14.35;12.95;;;;;;;16.28;95.61;101204.34;4912580;28;20190;-74
2023/05/09 07:04:42;;;;;;;14.32;12.85;;;;;;;16.32;95.66;101196.94;4902721;28;20039;-75
2023/05/09 07:07:07;;;;;;;14.10;12.73;;;;;;;16.28;93.89;101200.81;4915510;28;20036;-76
2023/05/09 07:09:32;;;;;;;14.75;13.23;;;;;;;16.15;94.39;101193.59;4949971;28;20075;-76
2023/05/09 07:11:59;;;;;;;17.38;14.30;;;;;;;16.12;95.14;101191.09;4937064;28;20107;-74
2023/05/09 07:14:25;;;;;;;13.98;12.57;;;;;;;16.15;95.85;101192.72;4940477;28;20041;-75
2023/05/09 07:16:53;;;;;;;14.15;12.75;;;;;;;16.29;96.41;101189.09;4951132;28;20043;-73
2023/05/09 07:19:18;;;;;;;12.77;11.57;;;;;;;16.29;95.61;101181.03;4936901;28;20035;-74
2023/05/09 07:21:44;;;;;;;14.45;12.55;;;;;;;16.28;94.62;101180.16;4905150;28;20020;-74
2023/05/09 07:24:09;;;;;;;13.63;12.27;;;;;;;16.26;95.07;101179.44;4897088;29;20024;-75
2023/05/09 07:26:35;;;;;;;14.63;13.02;;;;;;;16.16;93.74;101175.66;4905801;28;20511;-74
2023/05/09 07:29:01;;;;;;;13.20;11.90;;;;;;;16.07;94.37;101177.16;4904647;28;20090;-73
2023/05/09 07:31:26;;;;;;;14.32;12.38;;;;;;;16.02;94.92;101173.91;4906160;29;20031;-73
2023/05/09 07:33:51;;;;;;;13.40;12.00;;;;;;;15.99;95.62;101170.56;4932322;28;20622;-73
2023/05/09 07:36:17;;;;;;;13.20;11.10;;;;;;;15.94;94.74;101171.75;4910733;28;20504;-73
2023/05/09 07:38:42;;;;;;;13.25;10.77;;;;;;;15.88;94.65;101177.56;4909637;28;20059;-74
2023/05/09 07:41:08;;;;;;;10.95;9.95;;;;;;;15.81;95.99;101178.91;4930432;28;20036;-74
2023/05/09 07:43:33;;;;;;;13.82;9.10;;;;;;;15.68;95.05;101176.19;4986093;28;20119;-73
2023/05/09 07:45:59;;;;;;;10.02;9.02;;;;;;;15.51;95.86;101171.06;4969220;28;20400;-73
2023/05/09 07:48:25;;;;;;;9.63;8.00;;;;;;;15.45;96.76;101164.28;4897689;29;21543;-73
2023/05/09 07:50:53;;;;;;;9.25;8.35;;;;;;;15.39;97.09;101175.41;4994869;28;20499;-72
2023/05/09 07:53:21;;;;;;;9.75;8.48;;;;;;;15.33;97.76;101164.22;4963273;28;20187;-73
2023/05/09 07:55:49;;;;;;;8.38;7.57;;;;;;;15.31;98.38;101167.00;4902770;28;20107;-74
2023/05/09 07:58:15;;;;;;;8.60;7.75;;;;;;;15.30;99.33;101164.41;4905955;28;20022;-74
2023/05/09 08:00:41;;;;;;;9.32;8.43;;;;;;;15.24;99.34;101162.16;4906137;28;20485;-74
2023/05/09 08:03:06;;;;;;;9.27;8.38;;;;;;;15.20;100.00;101154.28;4903729;28;20542;-74
2023/05/09 08:05:32;;;;;;;8.82;8.02;;;;;;;15.16;100.00;101147.41;4899865;28;20074;-74
2023/05/09 08:07:57;;;;;;;9.20;8.35;;;;;;;15.18;100.00;101150.00;4998239;28;20032;-74
2023/05/09 08:10:23;;;;;;;9.48;8.57;;;;;;;15.18;100.00;101142.81;4896750;28;20517;-73
2023/05/09 08:12:49;;;;;;;9.80;8.80;;;;;;;15.27;100.00;101136.00;4933663;28;20057;-75
2023/05/09 08:15:14;;;;;;;9.80;8.57;;;;;;;15.54;100.00;101135.13;4900047;28;20436;-73
2023/05/09 08:17:40;;;;;;;10.50;8.57;;;;;;;15.76;98.31;101124.69;4927210;28;20432;-72
2023/05/09 08:20:07;;;;;;;9.27;8.40;;;;;;;15.85;98.63;101129.44;4901317;28;20098;-73
2023/05/09 08:22:32;;;;;;;11.02;8.85;;;;;;;15.96;99.31;101130.50;4905635;28;20468;-73
2023/05/09 08:24:57;;;;;;;9.50;8.60;;;;;;;16.01;97.81;101121.19;4907054;28;20119;-73
2023/05/09 08:27:23;;;;;;;8.73;7.82;;;;;;;16.11;96.09;101119.56;4897499;28;20034;-73
2023/05/09 08:29:48;;;;;;;8.82;8.02;;;;;;;16.17;96.34;101108.38;4897533;28;20427;-73
2023/05/09 08:32:14;;;;;;;9.20;8.40;;;;;;;16.21;97.43;101108.19;4912159;28;20036;-73
2023/05/09 08:34:39;;;;;;;8.70;7.80;;;;;;;16.10;96.37;101107.13;4892909;28;20385;-74
2023/05/09 08:37:05;;;;;;;10.23;8.25;;;;;;;16.02;98.20;101103.25;4970998;28;20463;-73
2023/05/09 08:39:30;;;;;;;8.48;7.63;;;;;;;15.93;99.78;101110.97;4984727;28;20032;-73
2023/05/09 08:42:00;;;;;;;10.32;8.52;;;;;;;15.80;100.00;101109.22;4966776;28;20036;-76
2023/05/09 08:44:28;;;;;;;10.13;9.15;;;;;;;15.68;100.00;101106.44;4969173;28;20124;-73
2023/05/09 08:46:57;;;;;;;9.43;8.52;;;;;;;15.58;100.00;101101.75;4895084;28;20083;-73
2023/05/09 08:49:23;;;;;;;9.75;8.18;;;;;;;15.57;100.00;101106.25;4982258;28;20315;-75
2023/05/09 08:51:49;;;;;;;9.45;8.00;;;;;;;15.52;100.00;101096.81;4901808;28;20060;-74
2023/05/09 08:54:15;;;;;;;9.32;8.32;;;;;;;15.47;100.00;101107.84;4918443;28;20024;-73
2023/05/09 08:56:41;;;;;;;9.60;7.88;;;;;;;15.39;100.00;101094.94;4899149;29;20124;-73
2023/05/09 08:59:07;;;;;;;8.98;8.13;;;;;;;15.50;100.00;101098.72;4903785;29;20032;-74
2023/05/09 09:01:34;;;;;;;7.50;6.80;;;;;;;15.61;100.00;101101.56;4901414;28;20165;-73
2023/05/09 09:04:00;;;;;;;6.18;5.38;;;;;;;15.58;100.00;101099.91;4913520;29;20027;-74
2023/05/09 09:06:27;;;;;;;6.95;5.15;;;;;;;15.60;100.00;101094.47;4901745;28;20420;-73
2023/05/09 09:08:55;;;;;;;6.80;5.78;;;;;;;15.58;100.00;101099.06;4900402;29;20031;-74
2023/05/09 09:11:21;;;;;;;6.55;4.93;;;;;;;15.52;100.00;101088.75;4903406;28;20026;-73
2023/05/09 09:13:50;;;;;;;5.78;4.82;;;;;;;15.37;100.00;101102.22;5006142;28;20028;-72
2023/05/09 09:16:19;;;;;;;5.63;5.00;;;;;;;15.23;100.00;101088.03;4892260;29;20028;-74
2023/05/09 09:18:45;;;;;;;5.05;4.55;;;;;;;15.08;100.00;101095.25;4913777;28;20063;-73
2023/05/09 09:21:14;;;;;;;5.72;4.63;;;;;;;14.79;100.00;101095.31;4915668;28;20060;-74
2023/05/09 09:23:42;;;;;;;6.30;5.38;;;;;;;14.64;100.00;101096.34;4908477;28;20032;-74
2023/05/09 09:26:07;;;;;;;6.47;4.28;;;;;;;14.50;100.00;101085.63;4894001;28;20035;-74
2023/05/09 09:28:33;;;;;;;5.25;4.75;;;;;;;14.42;100.00;101083.38;4900844;28;20032;-76
2023/05/09 09:30:58;;;;;;;7.55;5.55;;;;;;;14.31;100.00;101089.44;4900535;29;20047;-74
2023/05/09 09:33:25;;;;;;;5.18;3.97;;;;;;;14.18;100.00;101081.31;4905531;28;20048;-75
2023/05/09 09:35:53;;;;;;;4.30;3.70;;;;;;;13.95;100.00;101072.00;4896672;28;20035;-76
2023/05/09 09:38:20;;;;;;;5.35;4.85;;;;;;;13.95;100.00;101069.31;4970789;28;20028;-76
2023/05/09 09:40:54;;;;;;;5.78;4.75;;;;;;;14.03;100.00;101076.88;4979760;28;20097;-78
2023/05/09 09:43:26;;;;;;;5.07;4.60;;;;;;;14.07;100.00;101059.69;4918349;28;20348;-77
2023/05/09 09:45:52;;;;;;;5.57;4.75;;;;;;;14.09;100.00;101070.31;4906377;28;20031;-77
2023/05/09 09:48:23;;;;;;;5.47;4.70;;;;;;;14.07;100.00;101066.84;4895603;28;20098;-76
2023/05/09 09:50:48;;;;;;;5.20;4.65;;;;;;;14.17;100.00;101068.88;4911253;28;20035;-77
2023/05/09 09:53:14;;;;;;;5.13;4.25;;;;;;;14.18;100.00;101061.72;4899796;29;20028;-77
2023/05/09 09:55:48;;;;;;;5.82;4.35;;;;;;;14.27;100.00;101068.31;4902714;28;20035;-75
2023/05/09 09:58:18;;;;;;;4.40;4.00;;;;;;;14.30;100.00;101047.56;4907056;28;20028;-74
2023/05/09 10:00:44;;;;;;;5.22;3.95;;;;;;;14.38;100.00;101053.28;4900681;28;20098;-74
2023/05/09 10:03:17;;;;;;;5.00;4.35;;;;;;;14.38;100.00;101045.25;4892634;29;20627;-76
2023/05/09 10:05:43;;;;;;;6.00;5.40;;;;;;;14.45;100.00;101043.03;4898454;28;20403;-75
2023/05/09 10:08:08;;;;;;;6.63;6.00;;;;;;;14.42;100.00;101040.53;4895057;29;20028;-75
2023/05/09 10:10:36;;;;;;;5.93;5.43;;;;;;;14.34;100.00;101045.53;4903807;29;20075;-74
2023/05/09 10:13:05;;;;;;;7.85;5.65;;;;;;;14.26;100.00;101051.38;4906622;28;20068;-74
2023/05/09 10:15:31;;;;;;;5.50;5.00;;;;;;;14.32;100.00;101042.94;4895423;28;20119;-75
2023/05/09 10:17:59;;;;;;;6.88;5.20;;;;;;;14.26;100.00;101043.34;4906548;28;20040;-75
2023/05/09 10:20:27;;;;;;;6.25;5.65;;;;;;;14.31;100.00;101041.22;4904552;29;20032;-76
2023/05/09 10:23:00;;;;;;;6.25;5.47;;;;;;;14.37;100.00;101043.50;4904491;28;20051;-74
2023/05/09 10:25:46;;;;;;;6.22;4.93;;;;;;;14.36;100.00;101044.47;4944556;28;20048;-76
2023/05/09 10:28:16;;;;;;;5.80;5.22;;;;;;;14.28;100.00;101037.88;4904616;28;20389;-75
2023/05/09 10:31:06;;;;;;;5.00;4.50;;;;;;;14.17;100.00;101038.53;4906277;28;20252;-75
2023/05/09 10:33:45;;;;;;;5.35;4.95;;;;;;;14.07;100.00;101034.75;4894976;28;20028;-76
2023/05/09 10:36:14;;;;;;;6.65;5.53;;;;;;;14.02;100.00;101036.84;4904006;29;20028;-76
2023/05/09 10:38:40;;;;;;;6.80;5.35;;;;;;;13.99;100.00;101032.53;4903291;28;20024;-76
2023/05/09 10:41:07;;;;;;;6.85;5.63;;;;;;;13.86;100.00;101023.56;4906015;28;20250;-75
2023/05/09 10:43:32;;;;;;;6.68;5.97;;;;;;;14.03;100.00;101031.38;4890353;28;20123;-75
2023/05/09 10:45:58;;;;;;;6.53;5.90;;;;;;;14.02;100.00;101018.13;4982566;28;20642;-77
2023/05/09 10:48:24;;;;;;;7.63;5.90;;;;;;;14.05;100.00;101017.94;4901284;29;20071;-74
2023/05/09 10:50:51;;;;;;;7.60;5.80;;;;;;;14.09;100.00;101014.09;4906018;28;20279;-76
2023/05/09 10:53:17;;;;;;;8.30;6.03;;;;;;;14.06;100.00;101009.78;4897911;28;20024;-75
2023/05/09 10:55:58;;;;;;;7.95;6.57;;;;;;;14.16;100.00;101013.59;4912735;28;20032;-74
2023/05/09 10:58:28;;;;;;;7.38;6.60;;;;;;;14.15;100.00;101006.53;4907385;29;20036;-74
2023/05/09 11:00:55;;;;;;;7.82;7.13;;;;;;;14.19;100.00;100997.34;4917260;28;20053;-74
2023/05/09 11:03:23;;;;;;;7.72;6.90;;;;;;;14.27;100.00;100999.53;4916063;28;20107;-74
2023/05/09 11:05:50;;;;;;;8.38;7.63;;;;;;;14.34;100.00;101003.56;4912675;28;20036;-74